createdAt,value
2019-04-09T00:00:08.223Z,34.90
2019-04-09T00:02:17.681Z,32.10
2019-04-09T00:04:19.589Z,35.50
2019-04-09T00:06:21.261Z,36.80
2019-04-09T00:08:23.144Z,39.50
2019-04-09T00:10:25.107Z,40.30
2019-04-09T00:12:27.385Z,40.00
2019-04-09T00:14:29.333Z,42.40
2019-04-09T00:16:31.524Z,42.10
2019-04-09T00:18:33.823Z,44.20
2019-04-09T00:20:35.828Z,44.00
2019-04-09T00:22:37.500Z,41.40
2019-04-09T00:24:39.324Z,38.30
2019-04-09T00:26:47.513Z,39.60
2019-04-09T00:28:45.224Z,42.40
2019-04-09T00:30:47.471Z,36.90
2019-04-09T00:32:49.452Z,38.10
2019-04-09T00:34:52.153Z,34.60
2019-04-09T00:36:53.905Z,33.70
2019-04-09T00:38:56.009Z,34.20
2019-04-09T00:40:57.729Z,32.80
2019-04-09T00:43:00.394Z,32.20
2019-04-09T00:45:02.411Z,31.40
2019-04-09T00:47:04.080Z,33.70
2019-04-09T00:49:05.744Z,31.30
2019-04-09T00:51:08.337Z,33.20
2019-04-09T00:53:10.185Z,29.70
2019-04-09T00:55:12.754Z,31.30
2019-04-09T00:57:14.736Z,33.60
2019-04-09T00:59:17.395Z,31.80
2019-04-09T01:01:19.976Z,31.20
2019-04-09T01:03:21.915Z,31.20
2019-04-09T01:05:23.597Z,30.70
2019-04-09T01:07:25.276Z,30.90
2019-04-09T01:09:27.383Z,30.00
2019-04-09T01:11:29.749Z,30.60
2019-04-09T01:13:31.418Z,30.60
2019-04-09T01:15:33.786Z,31.70
2019-04-09T01:17:36.008Z,33.10
2019-04-09T01:19:37.793Z,31.30
2019-04-09T01:21:39.465Z,33.00
2019-04-09T01:23:41.134Z,34.00
2019-04-09T01:25:50.091Z,35.40
2019-04-09T01:27:51.800Z,36.70
2019-04-09T01:29:57.721Z,34.80
2019-04-09T01:32:22.785Z,35.40
2019-04-09T01:34:32.443Z,35.40
2019-04-09T01:36:44.457Z,34.50
2019-04-09T01:39:09.610Z,37.20
2019-04-09T01:41:18.078Z,38.20
2019-04-09T01:43:28.017Z,38.20
2019-04-09T01:46:08.335Z,35.30
2019-04-09T01:48:31.229Z,38.00
2019-04-09T01:50:39.745Z,39.00
2019-04-09T01:52:46.902Z,40.50
2019-04-09T01:55:04.586Z,40.60
2019-04-09T01:57:31.947Z,45.20
2019-04-09T01:59:39.077Z,43.00
2019-04-09T02:02:04.683Z,44.10
2019-04-09T02:04:17.400Z,42.60
2019-04-09T02:06:45.452Z,43.50
2019-04-09T02:09:06.184Z,43.50
2019-04-09T02:11:15.703Z,42.90
2019-04-09T02:13:28.616Z,44.10
2019-04-09T02:15:49.893Z,43.50
2019-04-09T02:18:08.808Z,42.20
2019-04-09T02:20:36.968Z,45.10
2019-04-09T02:23:10.172Z,47.10
2019-04-09T02:25:23.181Z,44.80
2019-04-09T02:27:53.549Z,46.30
2019-04-09T02:30:14.817Z,44.80
2019-04-09T02:32:36.111Z,44.50
2019-04-09T02:34:56.731Z,47.00
2019-04-09T02:37:09.458Z,43.60
2019-04-09T02:39:18.769Z,44.80
2019-04-09T02:41:52.225Z,46.90
2019-04-09T02:44:07.126Z,45.80
2019-04-09T02:46:47.001Z,49.70
2019-04-09T02:48:58.487Z,49.20
2019-04-09T02:51:09.741Z,46.40
2019-04-09T02:53:20.843Z,45.80
2019-04-09T02:55:45.334Z,46.50
2019-04-09T02:58:12.497Z,48.00
2019-04-09T03:00:32.938Z,44.90
2019-04-09T03:02:40.541Z,48.10
2019-04-09T03:04:57.850Z,47.10
2019-04-09T03:07:17.265Z,46.60
2019-04-09T03:09:38.774Z,46.90
2019-04-09T03:11:58.453Z,46.60
2019-04-09T03:14:19.141Z,47.70
2019-04-09T03:16:35.729Z,48.20
2019-04-09T03:19:00.322Z,49.40
2019-04-09T03:21:11.061Z,50.00
2019-04-09T03:23:41.220Z,50.50
2019-04-09T03:26:01.399Z,51.20
2019-04-09T03:28:21.769Z,50.00
2019-04-09T03:30:41.742Z,51.50
2019-04-09T03:33:00.242Z,50.00
2019-04-09T03:35:40.171Z,48.70
2019-04-09T03:38:01.723Z,49.20
2019-04-09T03:40:18.757Z,50.40
2019-04-09T03:42:39.106Z,51.50
2019-04-09T03:45:02.523Z,53.20
2019-04-09T03:47:17.294Z,52.80
2019-04-09T03:49:25.436Z,55.30
2019-04-09T03:51:35.568Z,55.60
2019-04-09T03:53:43.487Z,56.10
2019-04-09T03:55:56.882Z,57.40
2019-04-09T03:58:23.696Z,56.30
2019-04-09T04:00:47.593Z,55.90
2019-04-09T04:03:15.758Z,57.10
2019-04-09T04:05:28.661Z,57.00
2019-04-09T04:07:46.219Z,57.40
2019-04-09T04:10:07.446Z,55.90
2019-04-09T04:12:35.364Z,58.40
2019-04-09T04:14:47.327Z,58.50
2019-04-09T04:17:07.584Z,57.00
2019-04-09T04:19:19.130Z,56.50
2019-04-09T04:21:46.436Z,60.10
2019-04-09T04:23:58.365Z,59.70
2019-04-09T04:26:18.236Z,58.40
2019-04-09T04:28:40.578Z,60.80
2019-04-09T04:30:57.389Z,60.20
2019-04-09T04:33:12.374Z,59.80
2019-04-09T04:35:26.483Z,59.60
2019-04-09T04:37:49.872Z,62.20
2019-04-09T04:40:04.124Z,60.70
2019-04-09T04:42:11.582Z,62.00
2019-04-09T04:44:31.588Z,64.30
2019-04-09T04:46:55.836Z,65.30
2019-04-09T04:49:08.709Z,63.60
2019-04-09T04:51:24.437Z,63.40
2019-04-09T04:53:33.042Z,65.10
2019-04-09T04:55:54.741Z,63.20
2019-04-09T04:58:13.353Z,61.90
2019-04-09T05:00:24.800Z,64.70
2019-04-09T05:02:39.480Z,66.80
2019-04-09T05:05:07.029Z,64.00
2019-04-09T05:07:39.049Z,64.50
2019-04-09T05:09:44.152Z,63.20
2019-04-09T05:11:57.142Z,66.80
2019-04-09T05:14:17.135Z,69.30
2019-04-09T05:16:54.780Z,63.60
2019-04-09T05:19:09.921Z,65.40
2019-04-09T05:21:32.375Z,64.30
2019-04-09T05:24:00.277Z,67.90
2019-04-09T05:26:28.349Z,68.20
2019-04-09T05:29:01.995Z,62.60
2019-04-09T05:31:13.058Z,67.10
2019-04-09T05:33:34.361Z,59.80
2019-04-09T05:35:50.157Z,64.50
2019-04-09T05:37:57.444Z,64.60
2019-04-09T05:40:21.105Z,65.20
2019-04-09T05:42:28.484Z,61.00
2019-04-09T05:44:52.475Z,63.70
2019-04-09T05:47:20.739Z,64.40
2019-04-09T05:49:42.472Z,61.40
2019-04-09T05:52:18.705Z,63.30
2019-04-09T05:54:27.245Z,60.40
2019-04-09T05:56:47.392Z,62.30
2019-04-09T05:59:10.059Z,57.80
2019-04-09T06:01:26.248Z,59.20
2019-04-09T06:03:43.281Z,57.00
2019-04-09T06:05:53.322Z,56.30
2019-04-09T06:08:13.857Z,60.30
2019-04-09T06:10:15.738Z,60.30
2019-04-09T06:12:17.501Z,59.10
2019-04-09T06:14:19.184Z,58.80
2019-04-09T06:16:20.857Z,60.40
2019-04-09T06:18:22.539Z,54.10
2019-04-09T06:20:25.441Z,53.90
2019-04-09T06:22:27.606Z,54.50
2019-04-09T06:24:29.333Z,56.20
2019-04-09T06:26:31.060Z,60.50
2019-04-09T06:28:32.742Z,55.80
2019-04-09T06:30:34.409Z,54.70
2019-04-09T06:32:56.061Z,60.30
2019-04-09T06:35:09.682Z,60.30
2019-04-09T06:37:37.578Z,60.10
2019-04-09T06:39:57.972Z,62.30
2019-04-09T06:42:11.272Z,62.20
2019-04-09T06:44:31.462Z,63.60
2019-04-09T06:46:51.900Z,63.20
2019-04-09T06:49:01.839Z,62.00
2019-04-09T06:51:28.161Z,65.40
2019-04-09T06:53:28.975Z,59.50
2019-04-09T06:55:36.655Z,58.30
2019-04-09T06:57:56.473Z,60.40
2019-04-09T07:00:18.889Z,60.40
2019-04-09T07:02:39.768Z,63.70
2019-04-09T07:05:09.949Z,65.00
2019-04-09T07:07:19.894Z,62.20
2019-04-09T07:09:43.700Z,60.80
2019-04-09T07:11:53.349Z,63.50
2019-04-09T07:14:10.773Z,60.80
2019-04-09T07:16:26.354Z,67.60
2019-04-09T07:18:52.061Z,63.50
2019-04-09T07:21:26.455Z,66.70
2019-04-09T07:23:38.277Z,64.50
2019-04-09T07:25:55.085Z,65.90
2019-04-09T07:28:15.119Z,58.20
2019-04-09T07:30:39.293Z,61.00
2019-04-09T07:32:45.913Z,64.30
2019-04-09T07:34:58.004Z,63.80
2019-04-09T07:37:12.036Z,65.50
2019-04-09T07:39:29.946Z,59.30
2019-04-09T07:41:57.236Z,63.20
2019-04-09T07:44:21.578Z,60.80
2019-04-09T07:46:42.455Z,65.30
2019-04-09T07:49:05.505Z,63.00
2019-04-09T07:51:26.434Z,59.80
2019-04-09T07:53:37.557Z,59.20
2019-04-09T07:55:47.409Z,60.70
2019-04-09T07:57:54.800Z,64.20
2019-04-09T08:00:18.593Z,68.20
2019-04-09T08:02:28.513Z,66.60
2019-04-09T08:04:49.058Z,63.00
2019-04-09T08:07:09.274Z,56.10
2019-04-09T08:09:24.782Z,55.90
2019-04-09T08:11:42.896Z,54.20
2019-04-09T08:14:12.110Z,59.80
2019-04-09T08:16:49.073Z,54.40
2019-04-09T08:19:10.286Z,54.10
2019-04-09T08:21:18.376Z,50.10
2019-04-09T08:23:27.104Z,40.40
2019-04-09T08:25:48.449Z,40.20
2019-04-09T08:28:08.673Z,44.20
2019-04-09T08:30:38.226Z,40.80
2019-04-09T08:32:44.339Z,36.50
2019-04-09T08:35:05.974Z,39.00
2019-04-09T08:37:20.079Z,29.00
2019-04-09T08:39:27.720Z,38.20
2019-04-09T08:41:36.708Z,35.50
2019-04-09T08:43:51.963Z,35.40
2019-04-09T08:46:00.493Z,34.20
2019-04-09T08:48:14.401Z,28.70
2019-04-09T08:50:35.360Z,31.90
2019-04-09T08:52:56.280Z,30.00
2019-04-09T08:55:02.771Z,33.80
2019-04-09T08:57:18.188Z,29.10
2019-04-09T08:59:43.420Z,27.60
2019-04-09T09:02:16.943Z,26.60
2019-04-09T09:04:24.189Z,24.20
2019-04-09T09:06:33.578Z,25.50
2019-04-09T09:09:10.067Z,23.60
2019-04-09T09:11:27.788Z,16.40
2019-04-09T09:13:36.407Z,18.00
2019-04-09T09:15:46.987Z,9.40
2019-04-09T09:18:09.719Z,13.50
2019-04-09T09:20:30.326Z,10.30
2019-04-09T09:22:52.809Z,6.70
2019-04-09T09:25:16.969Z,3.00
2019-04-09T09:27:32.875Z,4.60
2019-04-09T09:30:04.016Z,5.80
2019-04-09T09:32:29.152Z,1.50
2019-04-09T09:34:53.396Z,5.70
2019-04-09T09:37:15.701Z,1.00
2019-04-09T09:39:37.872Z,1.00
2019-04-09T09:41:44.482Z,1.00
2019-04-09T09:43:54.329Z,1.00
2019-04-09T09:46:10.974Z,1.00
2019-04-09T09:48:25.091Z,1.00
2019-04-09T09:50:44.784Z,1.00
2019-04-09T09:53:08.661Z,1.00
2019-04-09T09:55:25.283Z,1.00
2019-04-09T09:57:41.363Z,1.00
2019-04-09T10:00:01.501Z,1.00
2019-04-09T10:02:16.530Z,1.00
2019-04-09T10:04:36.826Z,1.00
2019-04-09T10:06:50.370Z,1.00
2019-04-09T10:09:05.841Z,1.00
2019-04-09T10:11:30.395Z,1.00
2019-04-09T10:13:42.295Z,1.00
2019-04-09T10:16:14.264Z,1.00
2019-04-09T10:18:36.777Z,1.00
2019-04-09T10:21:02.442Z,1.00
2019-04-09T10:23:28.753Z,1.00
2019-04-09T10:26:05.081Z,1.00
2019-04-09T10:28:22.903Z,1.00
2019-04-09T10:30:34.068Z,1.00
2019-04-09T10:32:50.280Z,1.00
2019-04-09T10:35:10.549Z,1.00
2019-04-09T10:37:23.085Z,1.00
2019-04-09T10:39:50.237Z,1.00
2019-04-09T10:42:02.453Z,1.00
2019-04-09T10:44:15.036Z,1.00
2019-04-09T10:46:35.456Z,1.00
2019-04-09T10:49:03.267Z,1.00
2019-04-09T10:51:17.504Z,1.00
2019-04-09T10:53:37.621Z,1.00
2019-04-09T10:55:57.998Z,1.00
2019-04-09T10:58:05.311Z,1.00
2019-04-09T11:00:35.202Z,1.00
2019-04-09T11:02:47.260Z,1.00
2019-04-09T11:04:55.921Z,1.00
2019-04-09T11:07:13.617Z,1.00
2019-04-09T11:09:30.775Z,1.00
2019-04-09T11:11:58.046Z,1.00
2019-04-09T11:14:34.867Z,1.00
2019-04-09T11:17:14.856Z,1.00
2019-04-09T11:19:29.511Z,1.00
2019-04-09T11:21:44.052Z,1.00
2019-04-09T11:24:05.065Z,1.00
2019-04-09T11:26:33.393Z,1.00
2019-04-09T11:29:00.465Z,1.00
2019-04-09T11:31:20.456Z,1.00
2019-04-09T11:33:35.955Z,1.00
2019-04-09T11:35:55.317Z,1.00
2019-04-09T11:38:15.351Z,1.00
2019-04-09T11:40:21.249Z,1.00
2019-04-09T11:42:41.543Z,1.00
2019-04-09T11:45:01.800Z,1.00
2019-04-09T11:47:10.796Z,1.00
2019-04-09T11:49:24.765Z,1.00
2019-04-09T11:51:34.433Z,1.00
2019-04-09T11:53:54.452Z,1.00
2019-04-09T11:56:34.260Z,1.00
2019-04-09T11:59:01.381Z,1.00
2019-04-09T12:01:31.613Z,1.00
2019-04-09T12:03:59.157Z,1.00
2019-04-09T12:06:29.957Z,1.00
2019-04-09T12:08:51.316Z,1.00
2019-04-09T12:11:06.908Z,1.00
2019-04-09T12:13:16.324Z,1.00
2019-04-09T12:15:47.401Z,1.00
2019-04-09T12:18:07.384Z,1.00
2019-04-09T12:20:30.842Z,1.00
2019-04-09T12:22:49.026Z,1.00
2019-04-09T12:24:55.617Z,1.00
2019-04-09T12:27:06.598Z,1.00
2019-04-09T12:29:35.798Z,1.00
2019-04-09T12:32:10.904Z,1.00
2019-04-09T12:34:11.072Z,1.00
2019-04-09T12:36:31.074Z,1.00
2019-04-09T12:38:43.211Z,1.00
2019-04-09T12:41:15.829Z,1.00
2019-04-09T12:43:41.952Z,1.00
2019-04-09T12:46:00.982Z,1.00
2019-04-09T12:48:10.558Z,1.00
2019-04-09T12:50:30.485Z,1.00
2019-04-09T12:52:54.690Z,1.00
2019-04-09T12:55:05.082Z,1.00
2019-04-09T12:57:14.803Z,1.00
2019-04-09T12:59:31.581Z,1.00
2019-04-09T13:01:45.556Z,1.00
2019-04-09T13:04:05.445Z,1.00
2019-04-09T13:06:33.694Z,1.00
2019-04-09T13:08:51.883Z,1.00
2019-04-09T13:11:16.653Z,1.00
2019-04-09T13:13:28.714Z,1.00
2019-04-09T13:16:00.899Z,1.00
2019-04-09T13:18:21.641Z,1.00
2019-04-09T13:20:54.283Z,1.00
2019-04-09T13:23:14.613Z,1.00
2019-04-09T13:25:47.960Z,1.00
2019-04-09T13:28:08.660Z,1.00
2019-04-09T13:30:30.032Z,1.00
2019-04-09T13:32:41.625Z,1.00
2019-04-09T13:35:16.405Z,1.00
2019-04-09T13:37:24.422Z,1.00
2019-04-09T13:39:49.606Z,1.00
2019-04-09T13:42:05.164Z,1.00
2019-04-09T13:44:25.173Z,1.00
2019-04-09T13:46:32.845Z,1.00
2019-04-09T13:48:41.263Z,1.00
2019-04-09T13:51:03.960Z,1.00
2019-04-09T13:53:06.692Z,1.00
2019-04-09T13:55:08.813Z,1.00
2019-04-09T13:57:11.587Z,1.00
2019-04-09T13:59:14.221Z,1.00
2019-04-09T14:01:16.666Z,1.00
2019-04-09T14:03:56.629Z,1.00
2019-04-09T14:05:58.978Z,1.00
2019-04-09T14:08:01.224Z,1.00
2019-04-09T14:10:04.157Z,1.00
2019-04-09T14:12:05.836Z,1.00
2019-04-09T14:14:07.500Z,1.00
2019-04-09T14:16:11.059Z,1.00
2019-04-09T14:18:12.845Z,1.00
2019-04-09T14:20:15.616Z,1.00
2019-04-09T14:22:18.272Z,1.00
2019-04-09T14:24:20.693Z,1.00
2019-04-09T14:26:22.558Z,1.00
2019-04-09T14:28:24.408Z,1.00
2019-04-09T14:30:26.460Z,1.00
2019-04-09T14:32:28.341Z,1.00
2019-04-09T14:34:30.799Z,1.00
2019-04-09T14:36:32.868Z,1.00
2019-04-09T14:38:35.578Z,1.00
2019-04-09T14:40:37.711Z,1.00
2019-04-09T14:42:39.386Z,1.00
2019-04-09T14:44:41.050Z,1.00
2019-04-09T14:46:43.617Z,1.00
2019-04-09T14:48:45.675Z,1.00
2019-04-09T14:50:48.315Z,1.00
2019-04-09T14:52:57.438Z,1.00
2019-04-09T14:54:54.506Z,1.00
2019-04-09T14:56:56.526Z,1.00
2019-04-09T14:58:58.237Z,1.00
2019-04-09T15:00:59.934Z,1.00
2019-04-09T15:03:12.656Z,1.00
2019-04-09T15:05:05.681Z,1.00
2019-04-09T15:07:07.793Z,1.00
2019-04-09T15:09:11.015Z,1.00
2019-04-09T15:11:13.507Z,1.00
2019-04-09T15:13:16.367Z,1.00
2019-04-09T15:15:19.953Z,1.00
2019-04-09T15:17:22.871Z,1.00
2019-04-09T15:19:25.526Z,1.00
2019-04-09T15:21:45.105Z,1.00
2019-04-09T15:23:47.235Z,1.00
2019-04-09T15:25:49.249Z,1.00
2019-04-09T15:27:51.057Z,1.00
2019-04-09T15:29:52.724Z,1.00
2019-04-09T15:31:54.400Z,1.00
2019-04-09T15:33:56.069Z,1.00
2019-04-09T15:35:57.854Z,1.00
2019-04-09T15:38:00.221Z,1.00
2019-04-09T15:40:03.327Z,1.00
2019-04-09T15:42:06.162Z,1.00
2019-04-09T15:44:08.177Z,1.00
2019-04-09T15:46:10.841Z,1.00
2019-04-09T15:48:12.716Z,1.00
2019-04-09T15:50:14.384Z,1.00
2019-04-09T15:52:16.073Z,1.00
2019-04-09T15:54:17.728Z,1.00
2019-04-09T15:56:19.392Z,1.00
2019-04-09T15:58:21.066Z,1.00
2019-04-09T16:00:22.733Z,1.00
2019-04-09T16:02:24.671Z,1.00
2019-04-09T16:04:27.975Z,1.00
2019-04-09T16:06:30.531Z,1.00
2019-04-09T16:08:32.484Z,1.00
2019-04-09T16:10:34.245Z,1.00
2019-04-09T16:12:36.824Z,1.00
2019-04-09T16:14:38.782Z,1.00
2019-04-09T16:16:41.772Z,1.00
2019-04-09T16:18:43.694Z,1.00
2019-04-09T16:20:45.357Z,1.00
2019-04-09T16:22:47.033Z,1.00
2019-04-09T16:24:48.991Z,1.00
2019-04-09T16:26:50.870Z,1.00
2019-04-09T16:28:52.633Z,1.00
2019-04-09T16:30:54.416Z,1.00
2019-04-09T16:33:08.846Z,1.00
2019-04-09T16:35:00.834Z,1.00
2019-04-09T16:37:09.072Z,1.00
2019-04-09T16:39:08.156Z,1.00
2019-04-09T16:41:09.960Z,1.00
2019-04-09T16:43:12.456Z,1.00
2019-04-09T16:45:15.631Z,1.00
2019-04-09T16:47:18.100Z,1.00
2019-04-09T16:49:20.982Z,1.00
2019-04-09T16:51:23.033Z,1.00
2019-04-09T16:53:25.020Z,1.00
2019-04-09T16:55:26.877Z,1.00
2019-04-09T16:57:29.661Z,1.00
2019-04-09T16:59:32.864Z,1.00
2019-04-09T17:01:35.869Z,1.00
2019-04-09T17:03:45.645Z,1.00
2019-04-09T17:05:42.336Z,1.00
2019-04-09T17:07:44.242Z,1.00
2019-04-09T17:09:45.914Z,1.00
2019-04-09T17:11:47.593Z,1.00
2019-04-09T17:13:49.255Z,1.00
2019-04-09T17:15:51.830Z,1.00
2019-04-09T17:17:54.237Z,1.00
2019-04-09T17:19:57.640Z,1.00
2019-04-09T17:21:59.555Z,1.00
2019-04-09T17:24:03.706Z,1.00
2019-04-09T17:26:05.358Z,1.00
2019-04-09T17:28:07.181Z,1.00
2019-04-09T17:30:10.015Z,1.00
2019-04-09T17:32:11.833Z,1.00
2019-04-09T17:34:24.047Z,1.00
2019-04-09T17:36:17.184Z,1.00
2019-04-09T17:38:19.749Z,1.00
2019-04-09T17:40:21.705Z,1.00
2019-04-09T17:42:23.683Z,1.00
2019-04-09T17:44:25.365Z,1.00
2019-04-09T17:46:27.126Z,1.00
2019-04-09T17:48:29.046Z,1.00
2019-04-09T17:50:30.709Z,1.00
2019-04-09T17:52:32.594Z,1.00
2019-04-09T17:54:35.291Z,1.00
2019-04-09T17:56:38.375Z,1.00
2019-04-09T17:58:40.970Z,1.00
2019-04-09T18:00:43.699Z,1.00
2019-04-09T18:02:46.830Z,1.00
2019-04-09T18:04:52.871Z,1.00
2019-04-09T18:06:52.201Z,1.00
2019-04-09T18:08:53.881Z,1.00
2019-04-09T18:10:55.540Z,1.00
2019-04-09T18:12:57.206Z,1.00
2019-04-09T18:14:58.893Z,1.00
2019-04-09T18:17:00.739Z,1.00
2019-04-09T18:19:02.638Z,1.00
2019-04-09T18:21:04.552Z,1.00
2019-04-09T18:23:06.222Z,1.00
2019-04-09T18:25:08.130Z,1.00
2019-04-09T18:27:11.705Z,1.00
2019-04-09T18:29:13.657Z,1.00
2019-04-09T18:31:25.110Z,1.00
2019-04-09T18:33:18.885Z,1.00
2019-04-09T18:35:20.562Z,1.00
2019-04-09T18:37:22.229Z,1.00
2019-04-09T18:39:23.905Z,1.00
2019-04-09T18:41:26.277Z,1.00
2019-04-09T18:43:28.968Z,1.00
2019-04-09T18:45:30.876Z,1.00
2019-04-09T18:47:32.825Z,1.00
2019-04-09T18:49:34.515Z,1.00
2019-04-09T18:51:36.531Z,1.00
2019-04-09T18:53:38.810Z,1.00
2019-04-09T18:55:40.645Z,1.00
2019-04-09T18:57:42.570Z,1.00
2019-04-09T18:59:44.361Z,1.00
2019-04-09T19:01:46.978Z,1.00
2019-04-09T19:03:49.873Z,1.00
2019-04-09T19:05:51.989Z,1.00
2019-04-09T19:07:54.340Z,1.00
2019-04-09T19:09:56.834Z,1.00
2019-04-09T19:11:58.493Z,1.00
2019-04-09T19:14:00.158Z,1.00
2019-04-09T19:16:02.040Z,1.00
2019-04-09T19:18:04.416Z,1.00
2019-04-09T19:20:07.708Z,1.00
2019-04-09T19:22:09.802Z,1.00
2019-04-09T19:24:11.470Z,1.00
2019-04-09T19:26:13.714Z,1.00
2019-04-09T19:28:15.600Z,1.00
2019-04-09T19:30:17.285Z,1.00
2019-04-09T19:32:19.011Z,1.00
2019-04-09T19:34:21.420Z,1.00
2019-04-09T19:36:24.048Z,1.00
2019-04-09T19:38:28.306Z,1.00
2019-04-09T19:40:29.924Z,1.00
2019-04-09T19:42:31.914Z,1.00
2019-04-09T19:44:36.211Z,1.00
2019-04-09T19:46:37.151Z,1.00
2019-04-09T19:48:38.821Z,1.00
2019-04-09T19:50:41.749Z,1.00
2019-04-09T19:52:43.557Z,1.00
2019-04-09T19:54:45.391Z,1.00
2019-04-09T19:56:47.389Z,1.00
2019-04-09T19:58:52.437Z,1.00
2019-04-09T20:00:53.308Z,1.00
2019-04-09T20:02:55.090Z,1.00
2019-04-09T20:04:57.249Z,2.10
2019-04-09T20:06:59.040Z,1.00
2019-04-09T20:09:00.705Z,1.90
2019-04-09T20:11:03.354Z,1.50
2019-04-09T20:13:05.231Z,2.10
2019-04-09T20:15:06.899Z,3.70
2019-04-09T20:17:09.960Z,2.30
2019-04-09T20:19:13.464Z,2.70
2019-04-09T20:21:16.594Z,3.20
2019-04-09T20:23:18.935Z,4.00
2019-04-09T20:25:21.634Z,4.10
2019-04-09T20:27:25.281Z,4.50
2019-04-09T20:29:27.648Z,6.00
2019-04-09T20:31:29.321Z,6.10
2019-04-09T20:33:31.603Z,7.20
2019-04-09T20:35:42.605Z,7.00
2019-04-09T20:37:37.355Z,8.80
2019-04-09T20:39:41.473Z,9.00
2019-04-09T20:41:42.658Z,8.80
2019-04-09T20:43:44.885Z,9.20
2019-04-09T20:45:46.957Z,10.20
2019-04-09T20:47:48.716Z,11.00
2019-04-09T20:49:50.742Z,10.90
2019-04-09T20:51:52.933Z,12.20
2019-04-09T20:53:54.676Z,10.30
2019-04-09T20:55:56.359Z,12.20
2019-04-09T20:57:58.108Z,13.10
2019-04-09T21:00:17.724Z,12.60
2019-04-09T21:02:24.500Z,13.00
2019-04-09T21:04:27.093Z,12.60
2019-04-09T21:06:30.841Z,13.60
2019-04-09T21:08:33.530Z,15.40
2019-04-09T21:10:35.313Z,14.50
2019-04-09T21:12:36.968Z,14.10
2019-04-09T21:14:38.680Z,14.10
2019-04-09T21:16:40.678Z,14.60
2019-04-09T21:18:43.163Z,14.70
2019-04-09T21:20:44.937Z,13.30
2019-04-09T21:22:46.592Z,14.60
2019-04-09T21:24:48.258Z,13.60
2019-04-09T21:26:50.858Z,13.80
2019-04-09T21:28:52.700Z,12.70
2019-04-09T21:30:54.641Z,11.80
2019-04-09T21:32:57.027Z,11.40
2019-04-09T21:34:59.168Z,10.10
2019-04-09T21:37:01.858Z,9.60
2019-04-09T21:39:06.652Z,10.00
2019-04-09T21:41:08.418Z,8.80
2019-04-09T21:43:10.075Z,8.80
2019-04-09T21:45:11.746Z,7.40
2019-04-09T21:47:14.277Z,8.20
2019-04-09T21:49:16.644Z,9.10
2019-04-09T21:51:18.321Z,8.20
2019-04-09T21:53:19.991Z,7.60
2019-04-09T21:55:22.422Z,7.60
2019-04-09T21:57:25.320Z,7.20
2019-04-09T21:59:27.300Z,7.70
2019-04-09T22:01:29.377Z,7.60
2019-04-09T22:03:32.236Z,6.00
2019-04-09T22:05:34.425Z,6.80
2019-04-09T22:07:36.100Z,6.80
2019-04-09T22:09:37.875Z,6.80
2019-04-09T22:11:39.556Z,6.70
2019-04-09T22:13:41.486Z,7.00
2019-04-09T22:15:43.288Z,6.20
2019-04-09T22:17:45.831Z,7.30
2019-04-09T22:19:48.552Z,6.30
2019-04-09T22:21:50.423Z,6.70
2019-04-09T22:23:54.970Z,7.00
2019-04-09T22:25:56.767Z,6.60
2019-04-09T22:27:59.592Z,8.00
2019-04-09T22:30:01.694Z,6.40
2019-04-09T22:32:03.609Z,5.80
2019-04-09T22:34:05.865Z,6.90
2019-04-09T22:36:08.300Z,6.70
2019-04-09T22:38:12.302Z,6.30
2019-04-09T22:40:14.724Z,6.90
2019-04-09T22:42:17.739Z,5.60
2019-04-09T22:44:20.468Z,7.10
2019-04-09T22:46:22.565Z,5.70
2019-04-09T22:48:24.388Z,8.30
2019-04-09T22:50:26.676Z,6.60
2019-04-09T22:52:28.461Z,6.70
2019-04-09T22:54:30.112Z,7.50
2019-04-09T22:56:31.785Z,7.50
2019-04-09T22:58:33.464Z,9.60
2019-04-09T23:00:46.808Z,7.50
2019-04-09T23:02:59.089Z,9.40
2019-04-09T23:05:27.158Z,7.20
2019-04-09T23:07:41.420Z,8.00
2019-04-09T23:09:47.996Z,8.30
2019-04-09T23:11:51.693Z,9.40
2019-04-09T23:13:53.365Z,7.80
2019-04-09T23:15:55.027Z,8.60
2019-04-09T23:17:56.756Z,8.50
2019-04-09T23:19:58.581Z,8.00
2019-04-09T23:22:01.123Z,9.30
2019-04-09T23:24:03.772Z,7.90
2019-04-09T23:26:06.225Z,7.90
2019-04-09T23:28:07.901Z,7.10
2019-04-09T23:30:09.975Z,8.70
2019-04-09T23:32:12.200Z,7.90
2019-04-09T23:34:14.430Z,6.40
2019-04-09T23:36:16.229Z,8.10
2019-04-09T23:38:18.781Z,9.70
2019-04-09T23:40:21.404Z,7.80
2019-04-09T23:42:23.561Z,9.10
2019-04-09T23:44:33.263Z,9.20
2019-04-09T23:46:29.646Z,10.00
2019-04-09T23:48:32.927Z,8.10
2019-04-09T23:50:35.859Z,8.80
2019-04-09T23:52:38.655Z,9.70
2019-04-09T23:54:40.623Z,10.40
2019-04-09T23:56:42.304Z,10.60
2019-04-09T23:58:43.992Z,10.60
